Time;durP1;ratioP1;P1;durP2;ratioP2;P2;SDS_P1;SDS_P2;PMS_P1;PMS_P2;Temp;Humidity;BMP_temperature;BMP_pressure;BME280_temperature;BME280_humidity;BME280_pressure;Samples;Min_cycle;Max_cycle;Signal;HPM_P1;HPM_P2
2022/04/07 00:00:47;;;;;;;14.30;6.93;;;;;;;10.29;50.14;100207.50;2556791;23;20187;-66
2022/04/07 00:01:47;;;;;;;11.10;7.37;;;;;;;10.88;49.74;100285.31;2543192;23;20160;-66
2022/04/07 00:02:48;;;;;;;11.40;7.10;;;;;;;9.90;50.33;100144.13;2556933;23;20198;-66
2022/04/07 00:03:48;;;;;;;13.53;7.30;;;;;;;10.97;50.38;100292.94;2568796;23;20178;-67
2022/04/07 00:04:49;;;;;;;15.90;7.30;;;;;;;11.02;50.24;100295.19;2570151;23;20597;-66
2022/04/07 00:05:50;;;;;;;15.17;7.47;;;;;;;10.99;49.95;100280.19;2569835;23;20164;-67
2022/04/07 00:06:50;;;;;;;13.10;6.83;;;;;;;11.12;49.43;100288.53;2569408;23;20159;-67
2022/04/07 00:07:51;;;;;;;12.30;6.50;;;;;;;11.11;49.11;100289.72;2569827;23;20530;-66
2022/04/07 00:08:51;;;;;;;11.57;6.77;;;;;;;11.11;49.02;100281.41;2569958;23;20667;-67
2022/04/07 00:09:53;;;;;;;13.73;7.60;;;;;;;11.07;49.17;100286.31;2569989;23;20598;-66
2022/04/07 00:10:54;;;;;;;14.90;7.73;;;;;;;11.08;49.09;100279.53;2570018;23;20158;-66
2022/04/07 00:11:54;;;;;;;11.43;6.00;;;;;;;11.05;49.83;100277.63;2569260;23;20382;-66
2022/04/07 00:12:55;;;;;;;11.50;7.03;;;;;;;11.02;50.04;100276.53;2570025;23;20627;-66
2022/04/07 00:13:55;;;;;;;9.23;6.57;;;;;;;10.93;49.83;100257.03;2568895;23;20221;-66
2022/04/07 00:14:56;;;;;;;11.37;6.87;;;;;;;11.04;49.72;100265.78;2569993;23;20236;-67
2022/04/07 00:15:58;;;;;;;12.63;7.10;;;;;;;11.10;49.55;100260.44;2569871;23;20150;-67
2022/04/07 00:16:59;;;;;;;13.18;6.72;;;;;;;9.64;49.56;100037.38;2569546;23;20648;-66
2022/04/07 00:17:59;;;;;;;13.80;7.00;;;;;;;11.08;49.84;100262.91;2569995;23;20522;-66
2022/04/07 00:19:00;;;;;;;16.63;7.10;;;;;;;11.06;50.05;100263.34;2570009;23;20236;-66
2022/04/07 00:20:01;;;;;;;14.03;7.00;;;;;;;10.82;49.94;100225.31;2569846;23;20561;-66
2022/04/07 00:21:06;;;;;;;18.77;7.30;;;;;;;11.00;50.05;100256.78;2569928;23;20233;-66
2022/04/07 00:22:07;;;;;;;14.03;7.03;;;;;;;11.02;50.07;100253.59;2569564;23;20368;-66
2022/04/07 00:23:07;;;;;;;11.73;6.80;;;;;;;11.03;50.04;100250.38;2569386;23;20732;-66
2022/04/07 00:24:08;;;;;;;15.63;6.80;;;;;;;11.06;50.21;100245.94;2569609;23;20227;-66
2022/04/07 00:25:10;;;;;;;14.33;7.00;;;;;;;11.08;50.05;100249.03;2556782;23;20152;-66
2022/04/07 00:26:10;;;;;;;13.23;6.88;;;;;;;11.12;49.79;100246.94;2556753;23;20158;-66
2022/04/07 00:27:11;;;;;;;12.73;7.37;;;;;;;10.84;49.60;100197.91;2569453;23;20149;-66
2022/04/07 00:28:11;;;;;;;12.57;6.83;;;;;;;11.17;49.62;100246.38;2569776;23;20154;-66
2022/04/07 00:29:12;;;;;;;10.30;6.43;;;;;;;10.36;49.72;100123.44;2570003;23;20156;-66
2022/04/07 00:30:15;;;;;;;10.63;6.50;;;;;;;10.67;49.57;100161.22;2569870;23;20230;-67
2022/04/07 00:31:17;;;;;;;9.98;7.00;;;;;;;11.20;49.80;100246.25;2569536;23;20421;-66
2022/04/07 00:32:18;;;;;;;11.77;7.22;;;;;;;11.16;49.91;100237.25;2569868;23;20631;-66
2022/04/07 00:33:18;;;;;;;12.67;7.00;;;;;;;11.15;49.87;100244.03;2569189;23;20506;-67
2022/04/07 00:34:19;;;;;;;9.70;6.47;;;;;;;11.17;50.00;100246.38;2569561;23;20610;-66
2022/04/07 00:35:20;;;;;;;16.57;7.50;;;;;;;11.19;50.14;100252.25;2569832;23;20708;-66
2022/04/07 00:36:20;;;;;;;9.50;6.90;;;;;;;10.62;50.09;100174.88;2569806;23;20245;-66
2022/04/07 00:37:23;;;;;;;16.80;8.20;;;;;;;11.23;49.79;100248.13;2569435;23;20381;-66
2022/04/07 00:38:23;;;;;;;21.27;8.60;;;;;;;11.23;50.40;100255.69;2570040;23;20597;-67
2022/04/07 00:39:24;;;;;;;20.93;8.63;;;;;;;11.18;50.65;100245.91;2569956;23;20559;-66
2022/04/07 00:40:24;;;;;;;12.13;7.57;;;;;;;11.25;50.67;100256.78;2569765;23;20150;-66
2022/04/07 00:41:25;;;;;;;11.97;7.37;;;;;;;9.76;50.33;100031.13;2569275;23;20744;-66
2022/04/07 00:42:26;;;;;;;13.60;7.93;;;;;;;11.26;50.89;100272.19;2569756;23;20201;-67
2022/04/07 00:43:30;;;;;;;11.27;6.90;;;;;;;10.55;51.00;100170.31;2568888;23;20177;-66
2022/04/07 00:44:31;;;;;;;10.50;6.93;;;;;;;10.54;50.84;100165.22;2569654;23;20149;-67
2022/04/07 00:45:32;;;;;;;10.80;6.97;;;;;;;11.26;51.03;100274.97;2569829;23;20143;-66
2022/04/07 00:46:32;;;;;;;8.77;6.30;;;;;;;11.20;51.03;100274.00;2569928;23;20145;-66
2022/04/07 00:47:33;;;;;;;11.20;6.47;;;;;;;10.90;51.09;100215.53;2568639;23;20184;-66
2022/04/07 00:48:35;;;;;;;8.23;5.70;;;;;;;11.24;51.00;100263.56;2569664;23;20174;-66
2022/04/07 00:49:36;;;;;;;9.85;6.18;;;;;;;11.33;50.85;100271.97;2569639;23;20156;-66
2022/04/07 00:50:36;;;;;;;10.57;6.23;;;;;;;10.89;51.04;100197.34;2569986;23;20145;-66
2022/04/07 00:51:42;;;;;;;12.40;7.00;;;;;;;11.29;51.18;100267.75;2569263;23;20602;-66
2022/04/07 00:52:51;;;;;;;12.83;7.17;;;;;;;10.17;51.23;100105.81;2569938;23;20229;-66
2022/04/07 00:53:52;;;;;;;8.13;6.32;;;;;;;11.12;51.52;100256.00;2568984;23;20894;-67
2022/04/07 00:54:52;;;;;;;13.50;8.23;;;;;;;11.06;52.04;100252.25;2569767;23;20601;-66
2022/04/07 00:55:53;;;;;;;11.93;7.77;;;;;;;11.03;52.04;100253.16;2569654;23;20616;-66
2022/04/07 00:56:55;;;;;;;11.20;7.37;;;;;;;10.39;52.73;100164.88;2569120;23;20499;-66
2022/04/07 00:57:56;;;;;;;12.10;6.97;;;;;;;10.90;52.95;100240.47;2569670;23;20155;-66
2022/04/07 00:58:57;;;;;;;10.83;6.83;;;;;;;10.91;52.95;100242.81;2569867;23;20160;-66
2022/04/07 00:59:57;;;;;;;12.90;7.10;;;;;;;10.96;53.13;100247.81;2569948;23;20149;-66
2022/04/07 01:00:58;;;;;;;12.23;6.13;;;;;;;10.69;53.10;100207.88;2569939;23;20189;-66
2022/04/07 01:01:59;;;;;;;12.10;6.80;;;;;;;11.07;52.50;100259.34;2568997;23;20153;-66
2022/04/07 01:03:00;;;;;;;14.82;7.30;;;;;;;11.15;52.56;100257.13;2569789;23;20162;-66
2022/04/07 01:04:01;;;;;;;11.43;7.13;;;;;;;11.07;52.48;100231.59;2568525;23;20172;-67
2022/04/07 01:05:04;;;;;;;10.93;7.37;;;;;;;11.04;51.76;100228.97;2569872;23;20237;-66
2022/04/07 01:06:04;;;;;;;12.38;7.10;;;;;;;10.63;51.55;100198.56;2569644;23;20461;-66
2022/04/07 01:07:09;;;;;;;10.80;6.67;;;;;;;10.46;51.75;100153.56;2569282;23;20215;-67
2022/04/07 01:08:10;;;;;;;11.27;7.00;;;;;;;11.11;52.12;100243.38;2569784;23;20147;-66
2022/04/07 01:09:11;;;;;;;10.97;7.40;;;;;;;11.12;52.23;100244.91;2569751;23;20156;-67
2022/04/07 01:10:11;;;;;;;14.00;7.17;;;;;;;11.08;52.34;100230.41;2556409;23;20187;-66
2022/04/07 01:11:13;;;;;;;12.87;7.37;;;;;;;10.80;52.15;100189.72;2555947;23;20371;-66
2022/04/07 01:12:13;;;;;;;10.47;6.43;;;;;;;11.16;51.48;100242.03;2569593;23;20153;-66
2022/04/07 01:13:15;;;;;;;11.07;6.50;;;;;;;10.04;51.53;100071.03;2569297;23;20383;-67
2022/04/07 01:14:16;;;;;;;10.67;6.30;;;;;;;10.73;51.73;100162.22;2569300;23;20160;-66
2022/04/07 01:15:17;;;;;;;9.13;6.63;;;;;;;11.28;51.76;100227.38;2569860;23;20386;-66
2022/04/07 01:16:19;;;;;;;15.10;6.57;;;;;;;11.31;51.73;100227.25;2569618;23;20638;-66
2022/04/07 01:17:20;;;;;;;9.53;6.60;;;;;;;11.28;51.69;100217.03;2569382;23;20168;-66
2022/04/07 01:18:21;;;;;;;11.57;7.10;;;;;;;11.35;51.89;100219.59;2569607;23;20378;-66
2022/04/07 01:19:21;;;;;;;9.67;6.63;;;;;;;11.31;51.55;100215.38;2569716;23;20389;-66
2022/04/07 01:20:22;;;;;;;11.93;6.57;;;;;;;11.06;51.67;100173.84;2569712;23;20598;-66
2022/04/07 01:21:23;;;;;;;9.80;6.40;;;;;;;11.33;51.62;100212.94;2569134;23;20552;-66
2022/04/07 01:22:24;;;;;;;11.50;6.73;;;;;;;11.33;51.72;100219.25;2569755;23;20157;-67
2022/04/07 01:23:32;;;;;;;13.63;6.83;;;;;;;11.39;51.39;100219.47;2555600;23;20430;-66
2022/04/07 01:24:32;;;;;;;9.73;6.30;;;;;;;11.40;51.14;100221.03;2558064;23;20534;-66
2022/04/07 01:25:33;;;;;;;13.20;6.93;;;;;;;10.51;51.33;100074.69;2569562;23;20455;-66
2022/04/07 01:26:42;;;;;;;10.87;6.23;;;;;;;11.40;51.49;100215.47;2569777;23;20197;-67
2022/04/07 01:27:48;;;;;;;10.40;6.70;;;;;;;11.38;51.72;100213.16;2569465;23;20206;-66
2022/04/07 01:28:49;;;;;;;10.37;6.20;;;;;;;11.43;51.36;100212.56;2569956;23;20355;-66
2022/04/07 01:29:52;;;;;;;9.97;5.67;;;;;;;11.46;51.29;100217.25;2569704;23;20865;-67
2022/04/07 01:30:52;;;;;;;10.03;6.00;;;;;;;11.09;51.41;100161.84;2569767;23;20156;-66
2022/04/07 01:31:53;;;;;;;10.23;5.17;;;;;;;10.74;51.09;100113.91;2568944;23;20932;-66
2022/04/07 01:32:59;;;;;;;7.13;5.20;;;;;;;11.39;51.26;100214.72;2569616;23;20172;-66
2022/04/07 01:34:00;;;;;;;9.10;5.70;;;;;;;11.23;51.41;100187.09;2568546;23;20251;-66
2022/04/07 01:35:01;;;;;;;7.93;5.40;;;;;;;11.42;51.38;100211.03;2569517;23;20386;-66
2022/04/07 01:36:02;;;;;;;9.00;5.13;;;;;;;11.42;51.69;100215.81;2569565;23;20382;-66
2022/04/07 01:37:03;;;;;;;9.97;5.70;;;;;;;11.42;51.38;100213.81;2569175;23;20415;-66
2022/04/07 01:38:04;;;;;;;10.73;6.33;;;;;;;11.47;51.69;100216.00;2569577;23;20152;-67
2022/04/07 01:39:07;;;;;;;10.53;5.20;;;;;;;11.51;51.31;100219.44;2569485;23;20234;-66
2022/04/07 01:40:10;;;;;;;8.43;5.37;;;;;;;11.49;51.26;100216.38;2569556;23;20371;-67
2022/04/07 01:41:12;;;;;;;14.07;6.33;;;;;;;11.34;51.61;100206.19;2569107;23;20383;-66
2022/04/07 01:42:14;;;;;;;11.13;5.93;;;;;;;11.52;51.39;100215.44;2569601;23;20372;-66
2022/04/07 01:43:15;;;;;;;10.10;5.90;;;;;;;11.43;51.33;100220.16;2569188;23;20375;-67
2022/04/07 01:44:18;;;;;;;10.50;5.33;;;;;;;11.59;51.15;100212.44;2569272;23;20379;-67
2022/04/07 01:45:20;;;;;;;7.97;5.30;;;;;;;11.53;51.21;100194.78;2569434;23;21138;-66
2022/04/07 01:46:22;;;;;;;10.63;5.77;;;;;;;10.70;51.25;100074.44;2569368;23;20453;-66
2022/04/07 01:47:23;;;;;;;9.87;5.53;;;;;;;11.50;51.16;100189.38;2568886;23;20378;-66
2022/04/07 01:48:24;;;;;;;7.47;5.70;;;;;;;11.56;51.05;100180.03;2569588;23;20155;-67
2022/04/07 01:49:25;;;;;;;7.90;5.47;;;;;;;11.22;51.11;100134.88;2569630;23;20492;-66
2022/04/07 01:50:27;;;;;;;8.43;5.40;;;;;;;11.52;51.57;100193.25;2569594;23;20148;-66
2022/04/07 01:51:29;;;;;;;9.60;5.10;;;;;;;11.34;51.77;100164.56;2569110;23;20390;-66
2022/04/07 01:52:30;;;;;;;7.37;5.13;;;;;;;10.00;51.73;99960.38;2569573;23;20406;-66
2022/04/07 01:53:32;;;;;;;9.77;5.77;;;;;;;11.38;51.91;100162.44;2568784;23;20382;-66
2022/04/07 01:54:34;;;;;;;10.07;5.27;;;;;;;11.03;51.96;100105.41;2569412;23;20375;-66
2022/04/07 01:55:35;;;;;;;9.50;5.40;;;;;;;11.41;52.09;100153.22;2569570;23;20415;-66
2022/04/07 01:56:39;;;;;;;10.93;5.20;;;;;;;11.51;51.85;100166.72;2569610;23;20434;-67
2022/04/07 01:57:39;;;;;;;8.97;5.20;;;;;;;10.88;51.73;100057.22;2569168;23;20516;-66
2022/04/07 01:58:41;;;;;;;9.67;5.10;;;;;;;11.55;51.54;100150.75;2569657;23;20379;-67
2022/04/07 01:59:41;;;;;;;9.07;5.10;;;;;;;11.61;51.39;100159.28;2569602;23;20548;-67
2022/04/07 02:00:42;;;;;;;9.97;4.70;;;;;;;11.69;51.41;100166.13;2569588;23;20372;-66
2022/04/07 02:01:43;;;;;;;9.40;6.00;;;;;;;11.13;51.11;100082.09;2569023;23;20157;-66
2022/04/07 02:02:45;;;;;;;9.43;5.00;;;;;;;11.72;51.18;100162.44;2569621;23;20176;-66
2022/04/07 02:03:45;;;;;;;11.20;5.23;;;;;;;11.74;51.22;100160.78;2568699;23;20152;-67
2022/04/07 02:05:00;;;;;;;20.33;5.70;;;;;;;11.64;51.35;100145.28;2569685;23;20416;-66
2022/04/07 02:06:14;;;;;;;9.43;4.80;;;;;;;11.68;51.24;100157.03;2569380;23;20678;-67
2022/04/07 02:07:14;;;;;;;7.47;4.83;;;;;;;11.69;51.26;100160.59;2568985;23;20728;-66
2022/04/07 02:08:15;;;;;;;7.37;4.73;;;;;;;11.64;51.44;100155.63;2569568;23;20400;-66
2022/04/07 02:09:16;;;;;;;8.03;4.43;;;;;;;11.52;51.52;100142.53;2569640;23;20270;-67
2022/04/07 02:10:16;;;;;;;8.00;4.63;;;;;;;11.62;51.64;100158.84;2569594;23;20233;-66
2022/04/07 02:11:17;;;;;;;6.50;4.30;;;;;;;11.61;51.68;100157.28;2555687;23;20772;-66
2022/04/07 02:12:20;;;;;;;6.97;4.80;;;;;;;11.59;51.59;100158.97;2556415;23;20885;-66
2022/04/07 02:13:21;;;;;;;7.97;4.73;;;;;;;11.40;51.88;100129.47;2568830;23;20159;-66
2022/04/07 02:14:22;;;;;;;10.53;4.87;;;;;;;11.43;51.94;100134.91;2569294;23;20378;-67
2022/04/07 02:15:25;;;;;;;12.20;5.17;;;;;;;11.47;52.17;100143.88;2569412;23;20383;-66
2022/04/07 02:16:27;;;;;;;13.17;5.20;;;;;;;11.62;52.02;100158.84;2569456;23;20719;-66
2022/04/07 02:17:28;;;;;;;12.60;5.37;;;;;;;11.70;51.90;100164.91;2568956;23;20461;-66
2022/04/07 02:18:28;;;;;;;8.13;4.70;;;;;;;11.75;51.77;100151.25;2569601;23;20383;-66
2022/04/07 02:19:29;;;;;;;9.40;5.07;;;;;;;11.65;51.91;100127.41;2569557;23;20222;-67
2022/04/07 02:20:29;;;;;;;13.53;5.20;;;;;;;11.85;51.72;100152.84;2569488;23;20171;-66
2022/04/07 02:21:30;;;;;;;10.60;5.20;;;;;;;11.89;51.53;100147.94;2568906;23;20146;-66
2022/04/07 02:22:30;;;;;;;8.53;4.90;;;;;;;11.84;51.40;100145.72;2569493;23;20749;-66
2022/04/07 02:23:34;;;;;;;8.83;4.67;;;;;;;11.28;51.45;100078.34;2568866;23;20498;-66
2022/04/07 02:24:37;;;;;;;6.70;4.43;;;;;;;11.75;51.75;100131.03;2569663;23;20633;-67
2022/04/07 02:25:38;;;;;;;7.43;4.17;;;;;;;11.75;51.47;100126.25;2569465;23;20375;-66
2022/04/07 02:26:38;;;;;;;6.97;4.57;;;;;;;11.70;51.94;100132.38;2569667;23;20877;-66
2022/04/07 02:27:41;;;;;;;6.80;4.40;;;;;;;11.62;52.04;100130.28;2569141;23;20677;-66
2022/04/07 02:28:42;;;;;;;10.07;4.80;;;;;;;11.61;52.38;100132.31;2569461;23;20491;-66
2022/04/07 02:29:43;;;;;;;8.43;4.63;;;;;;;11.63;52.53;100134.66;2569596;23;20512;-66
2022/04/07 02:30:45;;;;;;;7.10;4.67;;;;;;;11.72;52.37;100126.38;2556345;23;20407;-66
2022/04/07 02:31:45;;;;;;;7.43;4.50;;;;;;;11.75;52.55;100126.25;2555781;23;20645;-66
2022/04/07 02:32:48;;;;;;;8.80;4.60;;;;;;;11.79;52.12;100129.66;2569476;23;20442;-66
2022/04/07 02:33:48;;;;;;;10.30;4.63;;;;;;;11.31;51.98;100060.03;2568551;23;20158;-66
2022/04/07 02:34:49;;;;;;;6.70;4.60;;;;;;;11.89;51.87;100131.28;2556150;23;20394;-66
2022/04/07 02:35:50;;;;;;;9.63;4.33;;;;;;;11.94;52.01;100135.47;2556018;23;20155;-66
2022/04/07 02:36:51;;;;;;;7.83;4.73;;;;;;;11.81;52.36;100110.56;2568879;23;20151;-66
2022/04/07 02:37:51;;;;;;;10.33;4.40;;;;;;;11.98;52.66;100122.22;2569389;23;20378;-66
2022/04/07 02:38:52;;;;;;;8.60;4.40;;;;;;;12.05;52.65;100119.19;2569583;23;20294;-66
2022/04/07 02:39:53;;;;;;;6.10;4.27;;;;;;;12.05;51.70;100116.41;2569333;23;20506;-66
2022/04/07 02:40:54;;;;;;;9.67;4.73;;;;;;;11.95;52.02;100112.78;2569645;23;20496;-66
2022/04/07 02:41:54;;;;;;;8.33;4.50;;;;;;;11.87;52.38;100107.97;2568765;23;20386;-66
2022/04/07 02:42:55;;;;;;;6.10;4.20;;;;;;;11.78;52.80;100108.69;2569520;23;20206;-66
2022/04/07 02:43:55;;;;;;;8.13;4.60;;;;;;;11.56;52.88;100080.13;2568518;23;20151;-66
2022/04/07 02:44:56;;;;;;;7.63;4.23;;;;;;;11.75;52.85;100106.81;2569496;23;20199;-66
2022/04/07 02:45:56;;;;;;;7.83;4.07;;;;;;;11.31;53.05;100032.31;2569359;23;20485;-66
2022/04/07 02:46:57;;;;;;;8.50;4.60;;;;;;;11.84;52.80;100109.63;2568966;23;20157;-66
2022/04/07 02:47:57;;;;;;;6.23;4.57;;;;;;;11.85;52.40;100113.19;2569435;23;20261;-66
2022/04/07 02:48:58;;;;;;;7.43;4.17;;;;;;;11.88;52.78;100117.88;2569516;23;20477;-67
2022/04/07 02:49:59;;;;;;;6.63;4.30;;;;;;;11.94;52.88;100118.81;2556137;23;20161;-66
2022/04/07 02:51:01;;;;;;;9.05;4.40;;;;;;;12.03;53.02;100119.66;2556845;23;20299;-67
2022/04/07 02:52:02;;;;;;;8.27;4.95;;;;;;;11.98;53.08;100111.91;2569598;23;20159;-66
2022/04/07 02:53:02;;;;;;;9.20;4.50;;;;;;;12.07;52.85;100117.50;2570180;23;20161;-67
2022/04/07 02:54:03;;;;;;;9.67;4.93;;;;;;;12.22;52.71;100132.41;2569646;23;20156;-66
2022/04/07 02:55:04;;;;;;;7.80;4.87;;;;;;;12.26;52.66;100130.28;2570245;23;20624;-67
2022/04/07 02:56:05;;;;;;;7.27;4.67;;;;;;;12.30;52.47;100135.69;2570242;23;20604;-66
2022/04/07 02:57:06;;;;;;;7.80;4.90;;;;;;;12.33;52.21;100132.00;2569686;23;20795;-67
2022/04/07 02:58:07;;;;;;;9.67;4.60;;;;;;;12.37;52.11;100129.84;2570144;23;20152;-66
2022/04/07 02:59:07;;;;;;;8.07;4.80;;;;;;;12.41;51.89;100125.69;2570222;23;20887;-66
2022/04/07 03:00:08;;;;;;;7.80;4.97;;;;;;;11.81;51.64;100029.28;2570185;23;20812;-66
2022/04/07 03:01:14;;;;;;;7.30;4.90;;;;;;;12.37;51.70;100113.19;2556665;23;20229;-67
2022/04/07 03:02:14;;;;;;;8.17;5.47;;;;;;;12.29;51.89;100109.91;2557976;23;20360;-66
2022/04/07 03:03:15;;;;;;;7.63;5.20;;;;;;;12.27;51.91;100106.81;2569691;23;20867;-66
2022/04/07 03:04:15;;;;;;;7.30;5.07;;;;;;;12.02;52.15;100084.78;2569778;23;20155;-66
2022/04/07 03:05:16;;;;;;;8.93;5.00;;;;;;;12.13;52.11;100101.81;2570350;23;20156;-66
2022/04/07 03:06:17;;;;;;;9.23;5.50;;;;;;;12.18;52.00;100111.53;2570083;23;20424;-66
2022/04/07 03:07:17;;;;;;;7.87;5.23;;;;;;;12.21;51.92;100105.09;2569725;23;20285;-66
2022/04/07 03:08:18;;;;;;;9.80;5.30;;;;;;;12.21;52.11;100103.09;2570203;23;20159;-66
2022/04/07 03:09:19;;;;;;;8.60;5.67;;;;;;;12.28;52.02;100104.81;2570320;23;20205;-66
2022/04/07 03:10:20;;;;;;;8.83;5.20;;;;;;;12.35;52.01;100105.28;2569948;23;20175;-66
2022/04/07 03:11:20;;;;;;;7.10;5.20;;;;;;;11.24;52.36;99936.28;2569553;23;20425;-67
2022/04/07 03:12:21;;;;;;;9.07;4.77;;;;;;;12.43;52.60;100098.25;2570033;23;20612;-66
2022/04/07 03:13:21;;;;;;;7.37;4.90;;;;;;;11.83;52.26;100013.72;2569511;23;20195;-67
2022/04/07 03:14:22;;;;;;;11.60;5.27;;;;;;;12.23;52.64;100067.28;2569942;23;20182;-66
2022/04/07 03:15:23;;;;;;;8.73;5.00;;;;;;;12.52;52.88;100112.19;2570436;23;20148;-66
2022/04/07 03:16:23;;;;;;;7.53;5.43;;;;;;;12.56;52.90;100110.00;2570116;23;20174;-67
2022/04/07 03:17:24;;;;;;;9.93;5.20;;;;;;;12.60;52.97;100107.88;2569638;23;20200;-66
2022/04/07 03:18:25;;;;;;;9.13;5.67;;;;;;;12.64;52.64;100111.28;2570145;23;20162;-67
2022/04/07 03:19:25;;;;;;;8.70;5.40;;;;;;;12.65;53.11;100112.06;2570188;23;20159;-66
2022/04/07 03:20:26;;;;;;;7.87;5.60;;;;;;;12.50;53.38;100109.06;2570055;23;20173;-67
2022/04/07 03:21:27;;;;;;;7.33;5.07;;;;;;;12.65;53.86;100106.50;2569630;23;20233;-66
2022/04/07 03:22:27;;;;;;;11.40;5.47;;;;;;;12.62;53.54;100093.53;2570263;23;20612;-66
2022/04/07 03:23:28;;;;;;;8.30;5.60;;;;;;;12.30;53.52;100033.66;2569324;23;20227;-66
2022/04/07 03:24:29;;;;;;;9.23;5.13;;;;;;;12.43;54.23;100053.78;2556839;23;20151;-66
2022/04/07 03:25:29;;;;;;;9.53;5.40;;;;;;;12.69;54.43;100093.22;2556878;23;20167;-66
2022/04/07 03:26:30;;;;;;;12.63;5.37;;;;;;;12.65;54.29;100087.81;2569147;23;20158;-66
2022/04/07 03:27:31;;;;;;;8.93;5.47;;;;;;;12.62;54.58;100085.19;2568881;23;20152;-66
2022/04/07 03:28:31;;;;;;;8.97;5.27;;;;;;;12.19;55.39;100046.44;2570128;23;20621;-66
2022/04/07 03:29:32;;;;;;;11.20;5.90;;;;;;;12.22;55.21;100067.72;2570212;23;20150;-66
2022/04/07 03:30:33;;;;;;;8.53;5.73;;;;;;;11.91;54.56;100047.53;2570225;23;20154;-66
2022/04/07 03:31:33;;;;;;;10.47;5.87;;;;;;;11.17;55.98;99952.41;2569460;23;20163;-67
2022/04/07 03:32:34;;;;;;;11.13;5.50;;;;;;;11.89;56.35;100050.75;2570134;23;20206;-66
2022/04/07 03:33:35;;;;;;;9.20;5.67;;;;;;;11.80;56.90;100036.06;2569113;23;20226;-66
2022/04/07 03:34:36;;;;;;;11.20;5.77;;;;;;;11.71;58.00;100031.25;2570020;23;20546;-67
2022/04/07 03:35:37;;;;;;;14.40;6.73;;;;;;;11.62;58.99;100020.06;2570116;23;20460;-66
2022/04/07 03:36:37;;;;;;;9.37;5.70;;;;;;;11.55;59.68;100019.53;2570141;23;20584;-67
2022/04/07 03:37:38;;;;;;;13.00;6.73;;;;;;;11.34;59.19;99984.25;2569549;23;20225;-66
2022/04/07 03:38:39;;;;;;;13.80;6.67;;;;;;;11.14;60.04;99984.59;2556873;23;20158;-66
2022/04/07 03:39:39;;;;;;;8.37;5.90;;;;;;;11.62;60.22;100022.84;2556912;23;20210;-67
2022/04/07 03:40:40;;;;;;;9.80;6.30;;;;;;;11.64;60.35;100019.63;2570134;23;20151;-66
2022/04/07 03:41:40;;;;;;;8.43;6.23;;;;;;;11.72;60.90;100021.69;2569297;23;20151;-67
2022/04/07 03:42:41;;;;;;;8.13;5.80;;;;;;;11.77;61.08;100017.53;2570165;23;20166;-66
2022/04/07 03:43:44;;;;;;;12.33;5.90;;;;;;;11.88;61.42;100020.69;2555855;23;20153;-66
2022/04/07 03:44:44;;;;;;;8.00;5.97;;;;;;;11.50;60.35;99954.31;2557182;23;20161;-67
2022/04/07 03:45:45;;;;;;;8.77;5.47;;;;;;;11.66;60.46;99962.44;2569382;23;20366;-66
2022/04/07 03:46:45;;;;;;;7.27;5.60;;;;;;;12.04;59.99;100015.66;2557327;23;20626;-66
2022/04/07 03:47:46;;;;;;;6.77;5.70;;;;;;;12.04;59.42;100012.88;2557651;23;20156;-66
2022/04/07 03:48:50;;;;;;;9.17;5.70;;;;;;;12.10;60.64;100007.50;2557741;23;20182;-66
2022/04/07 03:49:51;;;;;;;9.87;6.13;;;;;;;12.06;60.42;99984.66;2557531;23;20197;-67
2022/04/07 03:50:51;;;;;;;11.03;6.03;;;;;;;12.23;60.53;100006.19;2557786;23;20383;-66
2022/04/07 03:51:52;;;;;;;7.73;5.77;;;;;;;12.30;60.41;100014.22;2556933;23;20676;-67
2022/04/07 03:52:53;;;;;;;9.40;6.20;;;;;;;12.27;60.47;100000.47;2557747;23;20656;-66
2022/04/07 03:53:53;;;;;;;10.10;6.07;;;;;;;11.67;58.50;99900.16;2556741;23;20183;-67
2022/04/07 03:54:54;;;;;;;10.77;6.37;;;;;;;12.41;58.75;100011.00;2556623;23;20231;-67
2022/04/07 03:55:55;;;;;;;9.17;6.40;;;;;;;12.41;57.85;100014.53;2556725;23;20158;-66
2022/04/07 03:56:56;;;;;;;9.90;6.90;;;;;;;12.44;57.50;100016.41;2556982;23;20483;-66
2022/04/07 03:57:56;;;;;;;10.60;6.83;;;;;;;12.46;57.31;100019.50;2556620;23;20170;-67
2022/04/07 03:58:58;;;;;;;10.00;7.10;;;;;;;12.33;56.38;99995.84;2556960;23;20228;-66
2022/04/07 03:59:59;;;;;;;8.80;6.60;;;;;;;12.48;56.53;100010.72;2557481;23;20149;-67
2022/04/07 04:00:59;;;;;;;12.10;6.60;;;;;;;11.46;56.55;99858.56;2557712;23;20711;-67
2022/04/07 04:02:00;;;;;;;11.23;6.60;;;;;;;12.48;56.49;100013.50;2555231;23;20157;-67
2022/04/07 04:03:00;;;;;;;9.13;6.40;;;;;;;12.55;57.30;100016.00;2557563;23;20548;-66
2022/04/07 04:04:03;;;;;;;9.47;6.40;;;;;;;12.37;57.69;99988.94;2556612;23;20160;-66
2022/04/07 04:05:04;;;;;;;8.57;6.37;;;;;;;11.50;57.68;99853.66;2557672;23;20153;-66
2022/04/07 04:06:05;;;;;;;9.67;6.60;;;;;;;12.63;57.57;100020.00;2557611;23;20884;-66
2022/04/07 04:07:06;;;;;;;9.63;6.50;;;;;;;11.52;57.72;99851.22;2557004;23;20156;-66
2022/04/07 04:08:08;;;;;;;10.30;6.80;;;;;;;12.66;57.75;100025.41;2557592;23;20505;-66
2022/04/07 04:09:08;;;;;;;10.17;6.30;;;;;;;12.67;56.82;100032.53;2556645;23;20153;-66
2022/04/07 04:10:09;;;;;;;11.07;6.93;;;;;;;12.71;56.92;100035.16;2556800;23;20410;-67
2022/04/07 04:11:12;;;;;;;9.53;6.40;;;;;;;12.74;56.93;100040.59;2557236;23;20183;-66
2022/04/07 04:12:12;;;;;;;12.70;6.67;;;;;;;12.77;56.93;100042.44;2556541;23;20399;-66
2022/04/07 04:13:13;;;;;;;10.27;6.97;;;;;;;12.69;56.75;100038.41;2556236;23;20379;-66
2022/04/07 04:14:13;;;;;;;10.73;7.03;;;;;;;12.72;56.35;100033.94;2556336;23;20181;-66
2022/04/07 04:15:14;;;;;;;8.70;6.47;;;;;;;12.76;56.49;100046.44;2556849;23;20156;-66
2022/04/07 04:16:17;;;;;;;9.83;6.50;;;;;;;12.68;55.99;100017.41;2557204;23;20214;-66
2022/04/07 04:17:17;;;;;;;8.00;6.30;;;;;;;12.79;56.41;100031.63;2557008;23;20155;-66
2022/04/07 04:18:18;;;;;;;7.50;5.73;;;;;;;12.26;55.71;99954.47;2557533;23;20412;-66
2022/04/07 04:19:19;;;;;;;7.77;5.53;;;;;;;12.80;55.50;100029.63;2557683;23;20232;-66
2022/04/07 04:20:19;;;;;;;9.00;5.97;;;;;;;12.83;55.57;100028.69;2557464;23;20222;-66
2022/04/07 04:21:20;;;;;;;10.43;6.23;;;;;;;12.58;55.86;99984.47;2556951;23;20227;-66
2022/04/07 04:22:20;;;;;;;9.87;5.80;;;;;;;12.79;55.56;100019.72;2557416;23;20234;-66
2022/04/07 04:23:21;;;;;;;9.03;5.80;;;;;;;12.87;55.84;100034.88;2556797;23;20214;-67
2022/04/07 04:24:22;;;;;;;9.23;6.40;;;;;;;12.90;56.03;100031.16;2557329;23;20629;-66
2022/04/07 04:25:22;;;;;;;8.30;6.20;;;;;;;12.89;56.30;100032.41;2557538;23;20227;-67
2022/04/07 04:26:23;;;;;;;11.67;6.27;;;;;;;12.41;55.88;99958.22;2557421;23;20857;-67
2022/04/07 04:27:24;;;;;;;9.47;6.23;;;;;;;12.64;56.40;99988.19;2557002;23;20148;-67
2022/04/07 04:28:24;;;;;;;7.93;5.93;;;;;;;12.82;56.71;100019.56;2557489;23;20149;-67
2022/04/07 04:29:25;;;;;;;8.83;6.03;;;;;;;12.57;57.50;99982.94;2557607;23;20279;-66
2022/04/07 04:30:25;;;;;;;9.50;6.17;;;;;;;12.38;57.43;99976.59;2557290;23;20179;-67
2022/04/07 04:31:26;;;;;;;9.87;6.13;;;;;;;12.75;57.25;100017.09;2557012;23;20175;-67
2022/04/07 04:32:27;;;;;;;9.67;6.13;;;;;;;12.77;56.80;100023.00;2557418;23;20152;-66
2022/04/07 04:33:27;;;;;;;8.70;5.83;;;;;;;12.95;56.80;100052.81;2556917;23;20160;-67
2022/04/07 04:34:28;;;;;;;6.93;5.63;;;;;;;12.98;56.54;100057.47;2557407;23;20179;-66
2022/04/07 04:35:28;;;;;;;8.70;6.00;;;;;;;12.84;56.84;100038.56;2557366;23;20206;-67
2022/04/07 04:36:29;;;;;;;11.87;6.23;;;;;;;13.01;56.75;100053.78;2556461;23;20188;-67
2022/04/07 04:37:29;;;;;;;6.67;5.60;;;;;;;12.65;56.35;100023.13;2556093;23;20160;-66
2022/04/07 04:38:30;;;;;;;10.73;5.27;;;;;;;12.10;56.49;99936.06;2557430;23;20152;-67
2022/04/07 04:39:30;;;;;;;6.47;5.33;;;;;;;12.80;56.23;100047.06;2557535;23;20151;-66
2022/04/07 04:40:31;;;;;;;8.87;6.00;;;;;;;13.03;56.37;100079.13;2556548;23;20164;-66
2022/04/07 04:41:31;;;;;;;8.33;5.60;;;;;;;13.06;56.79;100089.34;2556130;23;20165;-67
2022/04/07 04:42:32;;;;;;;8.10;5.67;;;;;;;13.03;56.70;100104.16;2569087;23;20159;-67
2022/04/07 04:43:32;;;;;;;8.10;5.53;;;;;;;13.04;55.98;100119.59;2556611;23;20148;-66